createdAt,value
2022-09-12T00:01:37.537Z,99201.09
2022-09-12T00:04:07.391Z,99203.88
2022-09-12T00:06:38.225Z,99198.25
2022-09-12T00:09:10.503Z,99195.00
2022-09-12T00:11:43.628Z,99197.44
2022-09-12T00:14:16.881Z,99197.91
2022-09-12T00:16:46.805Z,99198.25
2022-09-12T00:19:17.009Z,99197.88
2022-09-12T00:21:47.355Z,99202.06
2022-09-12T00:24:17.159Z,99191.25
2022-09-12T00:26:48.838Z,99198.19
2022-09-12T00:29:20.917Z,99186.72
2022-09-12T00:31:50.850Z,99187.56
2022-09-12T00:34:20.825Z,99186.44
2022-09-12T00:36:50.585Z,99175.22
2022-09-12T00:39:20.333Z,99173.97
2022-09-12T00:41:51.652Z,99160.31
2022-09-12T00:44:45.079Z,99175.97
2022-09-12T00:47:20.589Z,99170.94
2022-09-12T00:49:56.518Z,99180.31
2022-09-12T00:52:32.007Z,99179.19
2022-09-12T00:55:06.781Z,99183.53
2022-09-12T00:57:44.603Z,99186.91
2022-09-12T01:00:16.737Z,99187.16
2022-09-12T01:02:50.024Z,99188.63
2022-09-12T01:05:20.963Z,99182.03
2022-09-12T01:07:52.806Z,99180.63
2022-09-12T01:10:23.348Z,99186.44
2022-09-12T01:12:55.259Z,99191.66
2022-09-12T01:15:25.645Z,99183.34
2022-09-12T01:18:08.845Z,99178.38
2022-09-12T01:21:07.790Z,99180.38
2022-09-12T01:24:19.255Z,99185.78
2022-09-12T01:27:29.406Z,99183.75
2022-09-12T01:30:33.851Z,99187.53
2022-09-12T01:33:23.911Z,99181.03
2022-09-12T01:36:07.357Z,99186.16
2022-09-12T01:38:40.682Z,99183.91
2022-09-12T01:41:18.617Z,99172.72
2022-09-12T01:43:52.407Z,99165.41
2022-09-12T01:46:27.050Z,99169.38
2022-09-12T01:49:02.464Z,99161.47
2022-09-12T01:51:37.443Z,99157.66
2022-09-12T01:54:11.744Z,99162.00
2022-09-12T01:56:45.110Z,99152.00
2022-09-12T01:59:20.035Z,99147.22
2022-09-12T02:01:56.791Z,99156.13
2022-09-12T02:04:34.253Z,99148.22
2022-09-12T02:07:12.418Z,99148.84
2022-09-12T02:09:47.333Z,99156.13
2022-09-12T02:12:21.968Z,99161.34
2022-09-12T02:14:56.922Z,99155.88
2022-09-12T02:17:28.267Z,99158.84
2022-09-12T02:20:03.560Z,99155.13
2022-09-12T02:22:37.451Z,99150.13
2022-09-12T02:25:10.450Z,99145.94
2022-09-12T02:27:44.224Z,99136.69
2022-09-12T02:30:16.615Z,99145.69
2022-09-12T02:32:58.364Z,99148.38
2022-09-12T02:35:37.780Z,99154.56
2022-09-12T02:38:11.289Z,99138.50
2022-09-12T02:40:41.820Z,99146.00
2022-09-12T02:43:11.627Z,99155.31
2022-09-12T02:45:42.165Z,99148.16
2022-09-12T02:48:17.347Z,99083.09
2022-09-12T02:50:49.159Z,99155.47
2022-09-12T02:53:19.680Z,99134.44
2022-09-12T02:55:49.836Z,99151.06
2022-09-12T02:58:24.574Z,99150.19
2022-09-12T03:01:08.971Z,99147.34
2022-09-12T03:04:00.434Z,99151.06
2022-09-12T03:06:38.739Z,99146.59
2022-09-12T03:09:16.926Z,99139.31
2022-09-12T03:12:11.803Z,99148.28
2022-09-12T03:15:02.143Z,99149.47
2022-09-12T03:17:45.300Z,99146.97
2022-09-12T03:20:23.468Z,99144.28
2022-09-12T03:22:57.345Z,99144.38
2022-09-12T03:25:32.111Z,99147.28
2022-09-12T03:28:08.152Z,99144.44
2022-09-12T03:30:42.287Z,99150.94
2022-09-12T03:33:13.104Z,99146.72
2022-09-12T03:35:44.793Z,99147.31
2022-09-12T03:38:14.928Z,99154.38
2022-09-12T03:40:44.857Z,99153.75
2022-09-12T03:43:14.960Z,99155.41
2022-09-12T03:45:44.727Z,99154.09
2022-09-12T03:48:14.530Z,99149.28
2022-09-12T03:50:45.726Z,99147.47
2022-09-12T03:53:17.400Z,99162.09
2022-09-12T03:55:48.767Z,99156.22
2022-09-12T03:58:18.627Z,99148.66
2022-09-12T04:00:48.505Z,99152.03
2022-09-12T04:03:19.364Z,99155.94
2022-09-12T04:05:50.606Z,99161.91
2022-09-12T04:08:20.323Z,99155.72
2022-09-12T04:10:50.753Z,99156.94
2022-09-12T04:13:20.556Z,99166.41
2022-09-12T04:15:57.792Z,99167.88
2022-09-12T04:18:27.891Z,99163.31
2022-09-12T04:20:59.416Z,99169.88
2022-09-12T04:23:29.135Z,99173.94
2022-09-12T04:26:00.833Z,99165.72
2022-09-12T04:28:30.970Z,99180.75
2022-09-12T04:31:03.219Z,99173.75
2022-09-12T04:33:33.105Z,99175.25
2022-09-12T04:36:10.722Z,99181.13
2022-09-12T04:38:40.493Z,99191.63
2022-09-12T04:41:14.000Z,99181.56
2022-09-12T04:43:46.339Z,99193.25
2022-09-12T04:46:19.847Z,99194.88
2022-09-12T04:48:54.515Z,99196.63
2022-09-12T04:51:29.816Z,99189.59
2022-09-12T04:54:01.557Z,99130.63
2022-09-12T04:56:31.947Z,99192.81
2022-09-12T04:59:02.668Z,99191.94
2022-09-12T05:01:32.636Z,99189.25
2022-09-12T05:04:03.787Z,99182.00
2022-09-12T05:06:37.211Z,99203.81
2022-09-12T05:09:08.812Z,99195.34
2022-09-12T05:12:03.081Z,99196.88
2022-09-12T05:14:32.511Z,99185.88
2022-09-12T05:17:02.993Z,99202.50
2022-09-12T05:19:33.562Z,99198.88
2022-09-12T05:22:06.742Z,99196.91
2022-09-12T05:24:37.928Z,99191.28
2022-09-12T05:27:07.816Z,99193.94
2022-09-12T05:29:37.626Z,99202.31
2022-09-12T05:32:07.404Z,99192.13
2022-09-12T05:34:37.998Z,99201.97
2022-09-12T05:37:09.237Z,99209.66
2022-09-12T05:39:38.971Z,99208.59
2022-09-12T05:42:09.091Z,99208.81
2022-09-12T05:44:38.862Z,99211.81
2022-09-12T05:47:08.797Z,99203.50
2022-09-12T05:49:38.572Z,99211.81
2022-09-12T05:52:10.146Z,99209.13
2022-09-12T05:54:41.270Z,99210.34
2022-09-12T05:57:11.096Z,99214.09
2022-09-12T05:59:40.819Z,99218.91
2022-09-12T06:02:12.979Z,99219.63
2022-09-12T06:04:43.839Z,99213.53
2022-09-12T06:07:15.592Z,99220.38
2022-09-12T06:09:45.340Z,99218.75
2022-09-12T06:12:15.118Z,99218.13
2022-09-12T06:14:44.908Z,99204.22
2022-09-12T06:17:14.607Z,99211.19
2022-09-12T06:19:44.481Z,99208.38
2022-09-12T06:22:15.659Z,99214.50
2022-09-12T06:24:45.821Z,99218.31
2022-09-12T06:27:16.198Z,99210.38
2022-09-12T06:29:46.004Z,99210.78
2022-09-12T06:32:16.608Z,99209.56
2022-09-12T06:34:48.495Z,99223.69
2022-09-12T06:37:20.077Z,99220.81
2022-09-12T06:39:49.975Z,99233.31
2022-09-12T06:42:20.089Z,99233.34
2022-09-12T06:44:50.539Z,99224.78
2022-09-12T06:47:21.189Z,99226.66
2022-09-12T06:49:51.229Z,99237.94
2022-09-12T06:52:22.356Z,99233.75
2022-09-12T06:54:52.147Z,99222.09
2022-09-12T06:57:22.027Z,99222.31
2022-09-12T06:59:52.356Z,99220.63
2022-09-12T07:02:22.223Z,99227.72
2022-09-12T07:04:52.349Z,99229.59
2022-09-12T07:07:24.204Z,99226.50
2022-09-12T07:09:54.112Z,99226.28
2022-09-12T07:12:24.071Z,99222.13
2022-09-12T07:14:54.164Z,99216.69
2022-09-12T07:17:24.315Z,99215.63
2022-09-12T07:19:54.044Z,99218.38
2022-09-12T07:22:25.311Z,99214.59
2022-09-12T07:24:55.841Z,99209.34
2022-09-12T07:27:25.682Z,99216.63
2022-09-12T07:29:55.998Z,99222.53
2022-09-12T07:32:26.118Z,99204.16
2022-09-12T07:34:56.011Z,99208.94
2022-09-12T07:37:29.516Z,99206.53
2022-09-12T07:39:59.746Z,99211.81
2022-09-12T07:42:29.706Z,99203.84
2022-09-12T07:45:00.537Z,99212.78
2022-09-12T07:47:30.286Z,99211.94
2022-09-12T07:50:00.266Z,99212.72
2022-09-12T07:52:31.695Z,99198.34
2022-09-12T07:55:01.587Z,99198.13
2022-09-12T07:57:31.615Z,99207.44
2022-09-12T08:00:01.610Z,99204.44
2022-09-12T08:02:31.664Z,99211.31
2022-09-12T08:05:02.558Z,99202.75
2022-09-12T08:07:34.229Z,99198.56
2022-09-12T08:10:04.282Z,99205.56
2022-09-12T08:12:34.664Z,99202.81
2022-09-12T08:15:06.520Z,99198.84
2022-09-12T08:17:36.518Z,99196.53
2022-09-12T08:20:07.332Z,99202.72
2022-09-12T08:22:39.934Z,99208.81
2022-09-12T08:25:10.522Z,99201.00
2022-09-12T08:27:40.830Z,99199.13
2022-09-12T08:30:11.986Z,99197.63
2022-09-12T08:32:41.750Z,99193.88
2022-09-12T08:35:11.979Z,99196.16
2022-09-12T08:38:01.275Z,99189.69
2022-09-12T08:40:31.641Z,99191.50
2022-09-12T08:43:09.436Z,99187.97
2022-09-12T08:45:48.248Z,99187.66
2022-09-12T08:48:18.131Z,99181.19
2022-09-12T08:50:49.914Z,99174.78
2022-09-12T08:53:24.889Z,99183.34
2022-09-12T08:55:59.627Z,99175.34
2022-09-12T08:58:30.769Z,99166.75
2022-09-12T09:01:08.545Z,99174.69
2022-09-12T09:04:08.167Z,99182.25
2022-09-12T09:06:58.538Z,99184.25
2022-09-12T09:09:41.426Z,99179.25
2022-09-12T09:12:23.540Z,99173.34
2022-09-12T09:15:22.153Z,99177.13
2022-09-12T09:17:56.428Z,99173.06
2022-09-12T09:20:31.760Z,99170.56
2022-09-12T09:23:08.701Z,99173.19
2022-09-12T09:25:50.732Z,99171.25
2022-09-12T09:28:24.941Z,99171.00
2022-09-12T09:30:54.885Z,99156.97
2022-09-12T09:33:27.479Z,99156.44
2022-09-12T09:36:04.406Z,99159.41
2022-09-12T09:38:45.899Z,99161.94
2022-09-12T09:41:35.543Z,99156.50
2022-09-12T09:44:05.787Z,99161.88
2022-09-12T09:46:35.771Z,99157.94
2022-09-12T09:49:09.212Z,99152.22
2022-09-12T09:51:41.830Z,99141.41
2022-09-12T09:54:21.264Z,99158.44
2022-09-12T09:56:52.572Z,99144.59
2022-09-12T09:59:28.420Z,99125.91
2022-09-12T10:02:03.652Z,99148.22
2022-09-12T10:04:41.084Z,99149.81
2022-09-12T10:07:21.170Z,99144.34
2022-09-12T10:10:07.052Z,99144.34
2022-09-12T10:12:38.488Z,99146.41
2022-09-12T10:15:19.347Z,99135.97
2022-09-12T10:17:51.050Z,99138.72
2022-09-12T10:20:37.313Z,99142.31
2022-09-12T10:23:28.489Z,99137.59
2022-09-12T10:26:01.813Z,99146.25
2022-09-12T10:28:37.426Z,99152.16
2022-09-12T10:31:09.688Z,99149.59
2022-09-12T10:33:45.277Z,99143.22
2022-09-12T10:36:16.783Z,99137.50
2022-09-12T10:38:52.300Z,99134.81
2022-09-12T10:41:23.023Z,99138.06
2022-09-12T10:43:54.199Z,99139.06
2022-09-12T10:46:30.571Z,99137.59
2022-09-12T10:49:21.177Z,99133.72
2022-09-12T10:51:51.919Z,99129.34
2022-09-12T10:54:24.796Z,99125.44
2022-09-12T10:57:08.628Z,99134.81
2022-09-12T10:59:52.815Z,99140.41
2022-09-12T11:02:29.667Z,99123.56
2022-09-12T11:05:08.027Z,99131.97
2022-09-12T11:07:43.888Z,99105.28
2022-09-12T11:10:38.786Z,99126.63
2022-09-12T11:13:23.944Z,99116.91
2022-09-12T11:16:08.136Z,99116.22
2022-09-12T11:18:56.792Z,99064.41
2022-09-12T11:21:45.808Z,99115.88
2022-09-12T11:24:30.634Z,99101.75
2022-09-12T11:27:15.950Z,99103.53
2022-09-12T11:29:51.025Z,99087.38
2022-09-12T11:32:47.606Z,99116.84
2022-09-12T11:35:25.837Z,99099.84
2022-09-12T11:38:25.087Z,99093.44
2022-09-12T11:40:57.543Z,99095.00
2022-09-12T11:43:37.994Z,99038.44
2022-09-12T11:46:19.623Z,99095.00
2022-09-12T11:48:59.050Z,99096.44
2022-09-12T11:51:35.107Z,99085.16
2022-09-12T11:54:15.046Z,99100.56
2022-09-12T11:56:48.290Z,99097.25
2022-09-12T11:59:38.155Z,99092.03
2022-09-12T12:02:15.644Z,99091.91
2022-09-12T12:05:02.992Z,99078.88
2022-09-12T12:07:45.668Z,99083.13
2022-09-12T12:10:28.566Z,99083.72
2022-09-12T12:13:02.037Z,99081.94
2022-09-12T12:15:32.595Z,99079.00
2022-09-12T12:18:08.921Z,99082.06
2022-09-12T12:20:40.269Z,99084.66
2022-09-12T12:23:24.291Z,99074.38
2022-09-12T12:25:56.585Z,99071.50
2022-09-12T12:28:57.389Z,99074.94
2022-09-12T12:31:27.828Z,99069.47
2022-09-12T12:34:06.635Z,99065.25
2022-09-12T12:36:40.435Z,99057.75
2022-09-12T12:39:49.980Z,99059.28
2022-09-12T12:42:58.757Z,99057.84
2022-09-12T12:46:13.136Z,99061.41
2022-09-12T12:48:56.789Z,99036.53
2022-09-12T12:51:36.295Z,99071.66
2022-09-12T12:54:30.808Z,99069.16
2022-09-12T12:57:18.746Z,99040.69
2022-09-12T12:59:54.235Z,99065.13
2022-09-12T13:02:30.274Z,99064.28
2022-09-12T13:05:02.452Z,99057.88
2022-09-12T13:07:36.307Z,99063.22
2022-09-12T13:10:09.483Z,99069.25
2022-09-12T13:12:47.082Z,99047.66
2022-09-12T13:15:49.849Z,99065.56
2022-09-12T13:18:26.171Z,99053.13
2022-09-12T13:21:04.999Z,99051.94
2022-09-12T13:23:35.443Z,99054.34
2022-09-12T13:26:12.900Z,99044.84
2022-09-12T13:28:42.934Z,99048.75
2022-09-12T13:31:24.865Z,99052.19
2022-09-12T13:33:57.917Z,99045.44
2022-09-12T13:37:27.691Z,99046.47
2022-09-12T13:40:07.505Z,99047.31
2022-09-12T13:42:43.509Z,99051.72
2022-09-12T13:45:18.456Z,99041.78
2022-09-12T13:47:55.316Z,99032.41
2022-09-12T13:50:32.226Z,99052.91
2022-09-12T13:53:06.933Z,99042.94
2022-09-12T13:55:41.639Z,99039.50
2022-09-12T13:58:21.620Z,99043.28
2022-09-12T14:01:14.390Z,99046.72
2022-09-12T14:04:08.726Z,99042.22
2022-09-12T14:06:49.681Z,99043.88
2022-09-12T14:09:25.475Z,99045.91
2022-09-12T14:11:55.874Z,99043.66
2022-09-12T14:14:32.947Z,99054.91
2022-09-12T14:17:03.245Z,99062.03
2022-09-12T14:19:34.564Z,99055.97
2022-09-12T14:22:04.988Z,99069.03
2022-09-12T14:24:34.945Z,99062.63
2022-09-12T14:27:06.403Z,99072.59
2022-09-12T14:29:37.965Z,99060.63
2022-09-12T14:32:22.680Z,99068.09
2022-09-12T14:35:06.482Z,99072.00
2022-09-12T14:37:36.679Z,99070.91
2022-09-12T14:40:19.373Z,99063.13
2022-09-12T14:42:51.463Z,99074.00
2022-09-12T14:45:32.031Z,99073.78
2022-09-12T14:48:02.154Z,99072.22
2022-09-12T14:50:37.240Z,99071.38
2022-09-12T14:53:08.797Z,99071.47
2022-09-12T14:55:45.399Z,99069.00
2022-09-12T14:58:23.572Z,99076.66
2022-09-12T15:01:00.319Z,99069.09
2022-09-12T15:03:33.225Z,99068.72
2022-09-12T15:06:04.926Z,99070.97
2022-09-12T15:08:34.823Z,99070.31
2022-09-12T15:11:07.804Z,99064.00
2022-09-12T15:13:41.821Z,99070.16
2022-09-12T15:16:13.964Z,99071.97
2022-09-12T15:18:44.186Z,99071.97
2022-09-12T15:21:17.686Z,99062.50
2022-09-12T15:23:49.483Z,99046.09
2022-09-12T15:26:21.829Z,99061.41
2022-09-12T15:28:52.262Z,99053.56
2022-09-12T15:31:27.217Z,99064.94
2022-09-12T15:33:59.172Z,99063.28
2022-09-12T15:36:30.073Z,99065.41
2022-09-12T15:39:00.031Z,99065.88
2022-09-12T15:41:34.143Z,99060.75
2022-09-12T15:44:05.211Z,99062.66
2022-09-12T15:46:36.501Z,99068.59
2022-09-12T15:49:07.064Z,99071.06
2022-09-12T15:51:37.163Z,99064.41
2022-09-12T15:54:06.997Z,99066.53
2022-09-12T15:56:37.032Z,99058.59
2022-09-12T15:59:07.119Z,99058.97
2022-09-12T16:01:38.540Z,99063.22
2022-09-12T16:04:21.867Z,99061.19
2022-09-12T16:06:52.051Z,99051.00
2022-09-12T16:09:22.849Z,99059.41
2022-09-12T16:11:52.839Z,99072.28
2022-09-12T16:14:22.844Z,99068.88
2022-09-12T16:16:57.482Z,99073.13
2022-09-12T16:19:27.369Z,99074.41
2022-09-12T16:21:57.357Z,99071.91
2022-09-12T16:24:27.367Z,99073.81
2022-09-12T16:27:00.981Z,99078.75
2022-09-12T16:29:31.391Z,99073.75
2022-09-12T16:32:03.354Z,99074.19
2022-09-12T16:34:33.236Z,99078.25
2022-09-12T16:37:03.242Z,99074.91
2022-09-12T16:39:34.481Z,99083.72
2022-09-12T16:42:05.031Z,99078.28
2022-09-12T16:44:34.980Z,99084.66
2022-09-12T16:47:06.676Z,99079.50
2022-09-12T16:49:36.455Z,99088.72
2022-09-12T16:52:06.894Z,99093.56
2022-09-12T16:54:37.090Z,99089.03
2022-09-12T16:57:07.322Z,99092.59
2022-09-12T16:59:37.547Z,99090.78
2022-09-12T17:02:09.250Z,99095.59
2022-09-12T17:04:39.315Z,99098.78
2022-09-12T17:07:10.176Z,99099.91
2022-09-12T17:09:40.332Z,99092.56
2022-09-12T17:12:10.484Z,99103.78
2022-09-12T17:14:40.350Z,99102.91
2022-09-12T17:17:11.882Z,99111.31
2022-09-12T17:19:43.416Z,99115.09
2022-09-12T17:22:13.421Z,99117.19
2022-09-12T17:24:43.433Z,99123.91
2022-09-12T17:27:13.571Z,99130.25
2022-09-12T17:29:43.569Z,99124.44
2022-09-12T17:32:17.555Z,99128.19
2022-09-12T17:34:47.559Z,99134.22
2022-09-12T17:37:17.776Z,99140.75
2022-09-12T17:39:47.764Z,99135.91
2022-09-12T17:42:17.964Z,99140.97
2022-09-12T17:44:48.179Z,99143.28
2022-09-12T17:47:19.633Z,99153.78
2022-09-12T17:49:50.703Z,99153.41
2022-09-12T17:52:21.463Z,99152.53
2022-09-12T17:54:51.651Z,99154.63
2022-09-12T17:57:21.497Z,99157.19
2022-09-12T17:59:51.622Z,99167.28
2022-09-12T18:02:21.941Z,99159.34
2022-09-12T18:04:51.891Z,99165.00
2022-09-12T18:07:22.229Z,99163.56
2022-09-12T18:09:52.666Z,99164.00
2022-09-12T18:12:22.554Z,99157.34
2022-09-12T18:14:52.533Z,99154.03
2022-09-12T18:17:23.707Z,99163.69
2022-09-12T18:19:54.876Z,99154.75
2022-09-12T18:22:24.942Z,99149.31
2022-09-12T18:24:54.822Z,99155.00
2022-09-12T18:27:24.897Z,99151.50
2022-09-12T18:30:17.125Z,99159.63
2022-09-12T18:32:46.757Z,99165.34
2022-09-12T18:35:18.048Z,99165.56
2022-09-12T18:37:47.978Z,99180.00
2022-09-12T18:40:18.530Z,99181.03
2022-09-12T18:42:48.409Z,99186.91
2022-09-12T18:45:18.476Z,99185.91
2022-09-12T18:47:49.934Z,99192.38
2022-09-12T18:50:19.732Z,99192.81
2022-09-12T18:52:49.518Z,99191.75
2022-09-12T18:55:20.109Z,99184.28
2022-09-12T18:57:50.562Z,99181.38
2022-09-12T19:00:21.455Z,99187.22
2022-09-12T19:02:52.671Z,99176.59
2022-09-12T19:05:22.471Z,99178.69
2022-09-12T19:07:52.663Z,99180.38
2022-09-12T19:10:22.731Z,99180.16
2022-09-12T19:12:52.877Z,99162.47
2022-09-12T19:15:23.125Z,99172.88
2022-09-12T19:17:54.540Z,99170.38
2022-09-12T19:20:24.418Z,99169.56
2022-09-12T19:22:54.198Z,99161.00
2022-09-12T19:25:24.597Z,99169.34
2022-09-12T19:27:54.435Z,99179.56
2022-09-12T19:30:24.356Z,99173.31
2022-09-12T19:32:55.568Z,99168.75
2022-09-12T19:35:25.481Z,99176.63
2022-09-12T19:37:55.736Z,99179.78
2022-09-12T19:40:25.779Z,99180.41
2022-09-12T19:42:55.568Z,99185.41
2022-09-12T19:45:25.737Z,99188.34
2022-09-12T19:47:56.921Z,99181.44
2022-09-12T19:50:27.309Z,99188.53
2022-09-12T19:52:57.070Z,99186.25
2022-09-12T19:55:27.261Z,99184.16
2022-09-12T19:57:57.079Z,99176.03
2022-09-12T20:00:27.037Z,99182.69
2022-09-12T20:02:58.228Z,99180.81
2022-09-12T20:05:28.224Z,99179.78
2022-09-12T20:07:58.866Z,99180.22
2022-09-12T20:10:29.128Z,99174.78
2022-09-12T20:12:58.961Z,99181.88
2022-09-12T20:15:29.125Z,99178.94
2022-09-12T20:18:00.358Z,99194.59
2022-09-12T20:20:30.341Z,99186.66
2022-09-12T20:23:01.069Z,99184.16
2022-09-12T20:25:30.981Z,99178.31
2022-09-12T20:28:00.934Z,99189.56
2022-09-12T20:30:31.020Z,99187.47
2022-09-12T20:33:02.478Z,99191.66
2022-09-12T20:35:32.470Z,99191.84
2022-09-12T20:38:02.459Z,99186.81
2022-09-12T20:40:32.318Z,99199.97
2022-09-12T20:43:02.085Z,99197.47
2022-09-12T20:45:31.846Z,99191.63
2022-09-12T20:48:03.330Z,99195.59
2022-09-12T20:50:33.264Z,99200.59
2022-09-12T20:53:03.072Z,99198.88
2022-09-12T20:55:32.965Z,99202.03
2022-09-12T20:58:03.359Z,99206.78
2022-09-12T21:00:33.281Z,99212.44
2022-09-12T21:03:05.228Z,99206.81
2022-09-12T21:05:35.164Z,99214.25
2022-09-12T21:08:05.046Z,99210.72
2022-09-12T21:10:35.987Z,99210.50
2022-09-12T21:13:05.742Z,99215.09
2022-09-12T21:15:35.502Z,99219.25
2022-09-12T21:18:06.831Z,99213.59
2022-09-12T21:20:36.711Z,99220.06
2022-09-12T21:23:06.476Z,99218.19
2022-09-12T21:25:36.274Z,99215.47
2022-09-12T21:28:06.232Z,99220.44
2022-09-12T21:30:36.037Z,99222.94
2022-09-12T21:33:08.665Z,99221.47
2022-09-12T21:35:39.048Z,99212.94
2022-09-12T21:38:09.404Z,99220.66
2022-09-12T21:40:39.658Z,99210.03
2022-09-12T21:43:12.765Z,99216.25
2022-09-12T21:45:42.868Z,99215.22
2022-09-12T21:48:13.975Z,99220.38
2022-09-12T21:50:44.364Z,99225.22
2022-09-12T21:53:14.136Z,99224.38
2022-09-12T21:55:44.059Z,99222.44
2022-09-12T21:58:13.803Z,99221.63
2022-09-12T22:00:44.393Z,99218.09
2022-09-12T22:03:15.941Z,99212.22
2022-09-12T22:05:45.832Z,99224.06
2022-09-12T22:08:15.483Z,99220.09
2022-09-12T22:10:45.237Z,99216.56
2022-09-12T22:13:15.004Z,99220.44
2022-09-12T22:15:45.686Z,99189.16
2022-09-12T22:18:16.810Z,99223.00
2022-09-12T22:20:47.310Z,99223.81
2022-09-12T22:23:34.775Z,99223.16
2022-09-12T22:26:04.812Z,99219.16
2022-09-12T22:28:35.859Z,99223.94
2022-09-12T22:31:06.681Z,99212.50
2022-09-12T22:33:38.184Z,99209.16
2022-09-12T22:36:09.779Z,99206.03
2022-09-12T22:38:40.536Z,99202.88
2022-09-12T22:41:13.187Z,99199.75
2022-09-12T22:43:43.183Z,99188.53
2022-09-12T22:46:13.409Z,99196.84
2022-09-12T22:48:44.701Z,99187.31
2022-09-12T22:51:14.776Z,99190.28
2022-09-12T22:53:44.960Z,99192.19
2022-09-12T22:56:14.859Z,99193.63
2022-09-12T22:58:44.580Z,99193.06
2022-09-12T23:01:14.513Z,99188.94
2022-09-12T23:03:46.090Z,99184.63
2022-09-12T23:06:16.033Z,99188.63
2022-09-12T23:08:46.229Z,99190.00
2022-09-12T23:11:17.768Z,99185.88
2022-09-12T23:13:49.432Z,99187.75
2022-09-12T23:16:21.496Z,99195.19
2022-09-12T23:18:53.633Z,99160.19
2022-09-12T23:21:23.561Z,99179.38
2022-09-12T23:23:53.741Z,99184.16
2022-09-12T23:26:25.655Z,99186.47
2022-09-12T23:28:57.498Z,99183.28
2022-09-12T23:31:30.041Z,99179.78
2022-09-12T23:34:05.942Z,99180.19
2022-09-12T23:36:35.865Z,99179.72
2022-09-12T23:39:06.218Z,99177.63
2022-09-12T23:41:36.143Z,99174.69
2022-09-12T23:44:06.044Z,99175.50
2022-09-12T23:46:35.820Z,99168.22
2022-09-12T23:49:07.413Z,99162.00
2022-09-12T23:51:37.344Z,99166.41
2022-09-12T23:54:08.705Z,99169.50
2022-09-12T23:56:38.554Z,99165.97
2022-09-12T23:59:09.302Z,99166.56
